Harrison, Maine
Current Conditions -  °F | °C
As of 1:54 AM on Thursday 23 Oct 2014 (Local Time) from KIZG Reporting Station
Light Rain Light Rain  
Wind Chill: 40°   Ceiling: 1100
Heat Index: 46°   Visibility: 7mi
Dew Point: 43°   Wind: 13mph
Humidity: 89%   Direction: 30°NNE
Pressure: 29.98"   Gusts: 23mph
Location:  44.11°N, 70.68°W
Report Text: KIZG 230554Z AUTO 03011G20KT 7SM -RA OVC011 08/06 A2998 RMK AO2 SLP155 P0001 60005 T00780061 10083 20078 58025
Loading
Personal Weather Stations






























Interactive Weather Map
Tropical Storm Tracking
New forecast layout! Learn more

10-Day Weather Forecast

Advertisements
Track Severe Weather on mobile